Time;durP1;ratioP1;P1;durP2;ratioP2;P2;SDS_P1;SDS_P2;PMS_P1;PMS_P2;Temp;Humidity;BMP_temperature;BMP_pressure;BME280_temperature;BME280_humidity;BME280_pressure;Samples;Min_cycle;Max_cycle;Signal;HPM_P1;HPM_P2
2021/12/27 00:04:29;;;;;;;;;;;;;;;-9.71;73.51;98435.16;213379;1329;24278;-73
2021/12/27 00:09:31;;;;;;;41.30;13.70;;;;;;;-9.73;73.40;98429.27;213305;1329;25583;-77
2021/12/27 00:14:33;;;;;;;39.60;14.30;;;;;;;-9.76;73.43;98423.19;213518;1327;22821;-73
2021/12/27 00:19:42;;;;;;;35.10;13.10;;;;;;;-9.79;73.43;98412.98;212975;1328;22657;-73
2021/12/27 00:25:07;;;;;;;36.70;12.70;;;;;;;-9.84;73.48;98411.73;213377;1329;24254;-72
2021/12/27 00:30:32;;;;;;;30.50;11.60;;;;;;;-9.81;73.93;98404.86;213634;1322;22668;-73
2021/12/27 00:35:46;;;;;;;29.50;12.10;;;;;;;-9.77;73.81;98393.07;213375;1328;25635;-73
2021/12/27 00:47:12;;;;;;;36.40;13.50;;;;;;;-9.76;73.86;98406.39;213022;1329;22804;-72
2021/12/27 00:52:15;;;;;;;45.00;15.50;;;;;;;-9.77;73.81;98416.02;213626;1329;23220;-74
2021/12/27 00:57:20;;;;;;;41.40;14.20;;;;;;;-9.77;74.19;98423.80;213704;1328;22585;-73
2021/12/27 01:02:23;;;;;;;41.00;14.70;;;;;;;-9.72;74.43;98429.87;213505;1323;22699;-74
2021/12/27 01:07:35;;;;;;;41.40;15.20;;;;;;;-9.73;74.24;98434.16;213557;1328;22691;-73
2021/12/27 01:13:04;;;;;;;46.90;17.10;;;;;;;-9.69;74.69;98444.00;213208;1329;22719;-73
2021/12/27 01:18:50;;;;;;;43.70;18.00;;;;;;;-9.67;74.57;98441.85;213568;1328;22625;-72
2021/12/27 01:24:10;;;;;;;39.40;16.60;;;;;;;-9.59;74.91;98437.91;213582;1329;22668;-72
2021/12/27 01:29:12;;;;;;;43.10;17.30;;;;;;;-9.63;74.37;98428.88;213793;1327;24149;-72
2021/12/27 01:34:15;;;;;;;40.10;16.70;;;;;;;-9.70;74.43;98421.30;213566;1329;25342;-73
2021/12/27 01:39:34;;;;;;;37.00;14.10;;;;;;;-9.70;74.74;98414.20;213762;1328;26009;-73
2021/12/27 01:45:03;;;;;;;38.40;15.30;;;;;;;-9.70;74.91;98409.61;213632;1329;26057;-73
2021/12/27 01:50:10;;;;;;;34.60;13.80;;;;;;;-9.68;75.16;98410.89;213744;1329;22643;-73
2021/12/27 01:55:23;;;;;;;37.00;14.20;;;;;;;-9.61;75.71;98411.73;213742;1329;24279;-71
2021/12/27 02:00:33;;;;;;;32.80;14.40;;;;;;;-9.54;75.72;98409.05;213554;1329;25351;-72
2021/12/27 02:05:36;;;;;;;41.30;18.80;;;;;;;-9.50;75.72;98405.45;213900;1329;22093;-74
2021/12/27 02:10:42;;;;;;;42.10;16.60;;;;;;;-9.48;75.79;98400.23;213244;1329;23292;-74
2021/12/27 02:15:50;;;;;;;43.40;17.30;;;;;;;-9.39;76.04;98401.40;213764;1329;22675;-73
2021/12/27 02:20:55;;;;;;;30.20;14.40;;;;;;;-9.36;75.92;98396.91;213498;1329;24137;-73
2021/12/27 02:25:57;;;;;;;35.80;16.60;;;;;;;-9.35;75.94;98400.36;213116;1327;26075;-72
2021/12/27 02:31:00;;;;;;;35.50;15.10;;;;;;;-9.37;75.91;98394.02;213652;1329;22677;-73
2021/12/27 02:36:07;;;;;;;40.10;17.70;;;;;;;-9.38;76.10;98388.10;213355;1329;22950;-73
2021/12/27 02:41:10;;;;;;;45.00;19.20;;;;;;;-9.37;76.24;98381.89;213225;1329;22720;-73
2021/12/27 02:46:15;;;;;;;35.60;14.90;;;;;;;-9.40;76.01;98374.86;213712;1329;24143;-72
2021/12/27 02:51:19;;;;;;;40.80;17.90;;;;;;;-9.44;76.12;98377.20;213754;1329;22648;-73
2021/12/27 02:56:23;;;;;;;39.50;17.60;;;;;;;-9.42;76.26;98371.24;213589;1329;22697;-74
2021/12/27 03:01:39;;;;;;;40.30;18.40;;;;;;;-9.45;76.01;98370.77;213344;1329;22760;-74
2021/12/27 03:06:50;;;;;;;32.30;17.20;;;;;;;-9.53;76.09;98382.52;213418;1328;22708;-73
2021/12/27 03:11:55;;;;;;;50.50;19.80;;;;;;;-9.60;76.24;98379.92;213166;1328;22653;-74
2021/12/27 03:17:00;;;;;;;35.00;13.90;;;;;;;-9.60;76.47;98374.64;213395;1329;22646;-74
2021/12/27 03:22:22;;;;;;;40.90;18.00;;;;;;;-9.56;76.56;98363.83;213609;1328;24257;-74
2021/12/27 03:27:25;;;;;;;32.10;16.10;;;;;;;-9.56;76.49;98356.83;213635;1327;23212;-72
2021/12/27 03:32:30;;;;;;;37.00;15.70;;;;;;;-9.56;76.73;98346.53;213486;1329;22715;-74
2021/12/27 03:37:32;;;;;;;38.70;18.00;;;;;;;-9.53;76.84;98339.56;213597;1329;23145;-73
2021/12/27 03:42:40;;;;;;;42.10;19.30;;;;;;;-9.52;76.88;98345.14;213310;1329;22748;-75
2021/12/27 03:47:42;;;;;;;43.50;18.40;;;;;;;-9.51;76.94;98342.29;213808;1328;24228;-74
2021/12/27 03:52:46;;;;;;;38.50;15.60;;;;;;;-9.51;76.82;98348.61;213742;1325;23125;-73
2021/12/27 03:57:52;;;;;;;38.20;17.60;;;;;;;-9.57;76.90;98356.52;213470;1329;25519;-73
2021/12/27 04:03:00;;;;;;;42.40;19.10;;;;;;;-9.59;76.95;98363.63;212404;1330;22653;-73
2021/12/27 04:08:09;;;;;;;41.80;20.00;;;;;;;-9.65;76.77;98369.05;213542;1329;22571;-74
2021/12/27 04:13:23;;;;;;;33.50;16.30;;;;;;;-9.63;77.12;98368.91;213235;1329;22684;-74
2021/12/27 04:18:26;;;;;;;44.40;21.40;;;;;;;-9.59;77.31;98379.73;213674;1329;24279;-72
2021/12/27 04:23:28;;;;;;;41.60;18.60;;;;;;;-9.58;77.28;98375.58;213669;1325;24643;-72
2021/12/27 04:28:31;;;;;;;44.90;20.50;;;;;;;-9.57;77.25;98378.06;213292;1329;22755;-74
2021/12/27 04:33:33;;;;;;;46.20;21.00;;;;;;;-9.59;77.32;98379.86;213049;1329;22710;-72
2021/12/27 04:38:42;;;;;;;38.80;18.10;;;;;;;-9.64;77.26;98383.38;213352;1329;26088;-72
2021/12/27 04:43:50;;;;;;;41.20;17.90;;;;;;;-9.67;77.57;98385.52;213295;1328;22754;-72
2021/12/27 04:48:58;;;;;;;42.80;18.40;;;;;;;-9.67;77.38;98389.07;213249;1329;22622;-73
2021/12/27 04:54:14;;;;;;;39.80;17.60;;;;;;;-9.66;77.80;98392.55;213298;1328;22622;-71
2021/12/27 04:59:20;;;;;;;44.40;18.80;;;;;;;-9.62;77.76;98385.21;213249;1329;22678;-72
2021/12/27 05:04:28;;;;;;;44.90;19.50;;;;;;;-9.62;77.76;98385.02;213405;1329;22812;-68
2021/12/27 05:09:30;;;;;;;41.60;19.90;;;;;;;-9.60;77.90;98383.04;212814;1328;26053;-72
2021/12/27 05:14:43;;;;;;;43.10;17.90;;;;;;;-9.57;77.98;98382.77;213254;1329;22694;-74
2021/12/27 05:20:03;;;;;;;32.80;13.80;;;;;;;-9.51;78.14;98365.34;212993;1325;22715;-73
2021/12/27 05:25:17;;;;;;;28.20;12.90;;;;;;;-9.40;78.41;98356.33;213316;1328;22761;-72
2021/12/27 05:30:20;;;;;;;34.20;15.30;;;;;;;-9.27;78.66;98364.20;213402;1329;22915;-73
2021/12/27 05:35:22;;;;;;;31.60;12.40;;;;;;;-9.16;78.60;98358.38;213535;1329;22918;-73
2021/12/27 05:40:27;;;;;;;31.50;16.00;;;;;;;-9.13;78.49;98344.89;213460;1329;22619;-73
2021/12/27 05:45:51;;;;;;;28.00;12.70;;;;;;;-9.15;78.17;98346.66;213534;1329;26218;-73
2021/12/27 05:51:00;;;;;;;31.30;15.00;;;;;;;-9.19;78.15;98348.98;213583;1329;22823;-73
2021/12/27 05:56:05;;;;;;;33.00;15.20;;;;;;;-9.26;78.09;98342.73;213379;1329;23173;-74
2021/12/27 06:01:12;;;;;;;39.10;17.50;;;;;;;-9.37;78.16;98342.54;213561;1328;22800;-73
2021/12/27 06:06:20;;;;;;;43.70;18.70;;;;;;;-9.44;78.13;98342.96;213593;1328;22867;-74
2021/12/27 06:11:29;;;;;;;47.80;19.40;;;;;;;-9.51;78.07;98344.42;213553;1328;24084;-73
2021/12/27 06:16:32;;;;;;;43.60;21.10;;;;;;;-9.61;78.05;98348.27;213408;1325;25539;-73
2021/12/27 06:21:36;;;;;;;38.70;16.30;;;;;;;-9.69;78.05;98350.98;213185;1329;26036;-73
2021/12/27 06:26:47;;;;;;;51.00;20.90;;;;;;;-9.74;78.08;98347.66;213276;1328;26050;-73
2021/12/27 06:31:50;;;;;;;41.90;18.20;;;;;;;-9.81;78.11;98343.48;213419;1329;26811;-72
2021/12/27 06:36:53;;;;;;;43.70;18.80;;;;;;;-9.91;78.19;98339.48;213486;1329;25472;-76
2021/12/27 06:42:06;;;;;;;50.00;21.60;;;;;;;-9.93;78.30;98338.15;213919;1321;22618;-74
2021/12/27 06:47:26;;;;;;;41.00;19.40;;;;;;;-9.97;78.30;98335.60;213326;1329;23812;-74
2021/12/27 06:52:29;;;;;;;41.70;19.50;;;;;;;-10.02;78.27;98334.58;213596;1321;25971;-73
2021/12/27 06:57:32;;;;;;;44.80;20.20;;;;;;;-10.01;78.60;98339.45;213695;1320;21841;-73
2021/12/27 07:02:44;;;;;;;44.20;20.80;;;;;;;-9.93;78.63;98346.08;213746;1325;25279;-73
2021/12/27 07:08:18;;;;;;;44.30;19.40;;;;;;;-9.89;78.48;98339.48;213903;1321;22713;-73
2021/12/27 07:13:26;;;;;;;45.60;18.80;;;;;;;-9.87;78.43;98341.88;213733;1329;22667;-74
2021/12/27 07:18:31;;;;;;;53.60;22.80;;;;;;;-9.84;78.43;98344.70;213792;1328;23439;-72
2021/12/27 07:23:44;;;;;;;52.30;21.50;;;;;;;-9.84;78.35;98334.45;213973;1320;23853;-73
2021/12/27 07:29:27;;;;;;;41.50;19.30;;;;;;;-9.83;78.33;98334.58;213655;1320;23542;-73
2021/12/27 07:34:43;;;;;;;46.70;21.50;;;;;;;-9.80;78.20;98329.54;206024;1321;10325615;-73
2021/12/27 07:39:54;;;;;;;50.20;20.60;;;;;;;-9.76;78.10;98327.46;213713;1321;24361;-74
2021/12/27 07:45:01;;;;;;;49.80;22.30;;;;;;;-9.73;77.87;98322.61;213561;1321;22825;-74
2021/12/27 07:50:06;;;;;;;50.50;22.20;;;;;;;-9.75;77.56;98312.99;213507;1320;22716;-73
2021/12/27 07:55:31;;;;;;;;;;;;;;;;;;;;;
2021/12/27 08:01:25;;;;;;;40.00;16.40;;;;;;;-9.75;77.66;98331.47;213763;1324;25631;-73
2021/12/27 08:06:58;;;;;;;31.60;14.10;;;;;;;-9.73;77.57;98342.15;213402;1324;24253;-73
2021/12/27 08:13:03;;;;;;;;;;;;;;;;;;;;;
2021/12/27 08:18:36;;;;;;;29.00;12.10;;;;;;;-9.46;77.68;98341.58;213735;1328;25338;-73
2021/12/27 08:23:58;;;;;;;30.90;13.20;;;;;;;-9.26;77.17;98338.16;213529;1328;22811;-73
2021/12/27 08:29:10;;;;;;;30.00;14.00;;;;;;;-9.26;76.91;98330.58;213652;1324;22794;-73
2021/12/27 08:34:31;;;;;;;26.20;12.90;;;;;;;-9.24;76.77;98322.58;213540;1321;23651;-71
2021/12/27 08:39:38;;;;;;;29.30;12.60;;;;;;;-9.19;76.98;98312.63;213713;1329;24545;-72
2021/12/27 08:44:40;;;;;;;26.30;12.00;;;;;;;-9.14;76.86;98314.73;213538;1323;22604;-74
2021/12/27 08:49:43;;;;;;;27.20;13.80;;;;;;;-9.08;76.93;98321.17;213751;1328;22689;-72
2021/12/27 08:55:14;;;;;;;26.50;11.60;;;;;;;-9.04;76.94;98314.14;213664;1325;24412;-70
2021/12/27 09:00:17;;;;;;;27.10;12.10;;;;;;;-8.92;76.95;98316.70;213576;1326;22803;-73
2021/12/27 09:05:29;;;;;;;32.40;15.00;;;;;;;-8.60;77.05;98319.02;213559;1320;22770;-73
2021/12/27 09:10:38;;;;;;;31.50;13.00;;;;;;;-8.56;76.56;98312.45;213470;1325;22834;-73
2021/12/27 09:15:48;;;;;;;27.90;12.70;;;;;;;-8.56;76.48;98302.97;213470;1320;24351;-73
2021/12/27 09:20:51;;;;;;;27.60;12.50;;;;;;;-8.55;76.62;98295.40;213698;1321;26589;-73
2021/12/27 09:25:54;;;;;;;28.80;13.60;;;;;;;-8.57;76.51;98290.30;213805;1320;22835;-73
2021/12/27 09:31:19;;;;;;;28.70;12.10;;;;;;;-8.54;76.79;98290.14;213232;1324;26105;-73
2021/12/27 09:36:21;;;;;;;27.10;13.60;;;;;;;-8.50;76.96;98286.87;213694;1321;22799;-73
2021/12/27 09:41:25;;;;;;;29.10;12.90;;;;;;;-8.36;77.19;98290.27;213814;1328;22719;-74
2021/12/27 09:46:48;;;;;;;34.20;15.00;;;;;;;-8.17;77.17;98290.44;213559;1328;23975;-73
2021/12/27 09:51:53;;;;;;;29.20;13.60;;;;;;;-7.98;77.11;98287.27;213470;1325;22763;-73
2021/12/27 09:57:01;;;;;;;28.40;12.20;;;;;;;-7.83;76.93;98277.02;213612;1328;24042;-73
2021/12/27 10:02:11;;;;;;;;;;;;;;;-7.71;76.88;98276.53;213759;1321;22577;-74
2021/12/27 10:07:24;;;;;;;38.10;13.70;;;;;;;-7.59;76.80;98273.45;213964;1325;23004;-74
2021/12/27 10:12:30;;;;;;;29.90;13.20;;;;;;;-7.45;76.89;98265.35;213985;1321;22849;-76
2021/12/27 10:17:36;;;;;;;27.20;12.80;;;;;;;-7.26;76.86;98272.10;213524;1321;22843;-74
2021/12/27 10:22:43;;;;;;;34.30;14.90;;;;;;;-7.02;77.06;98264.63;213435;1321;22815;-73
2021/12/27 10:27:53;;;;;;;31.90;14.00;;;;;;;-6.76;76.75;98257.58;213599;1324;22874;-74
2021/12/27 10:33:26;;;;;;;30.10;14.20;;;;;;;-6.54;76.56;98253.09;213625;1321;22795;-74
2021/12/27 10:38:36;;;;;;;37.80;16.40;;;;;;;-6.34;76.32;98250.23;213589;1320;22587;-73
2021/12/27 10:43:58;;;;;;;37.80;16.90;;;;;;;-6.23;75.92;98247.89;213688;1321;22799;-73
2021/12/27 10:49:21;;;;;;;32.90;14.70;;;;;;;-6.17;75.43;98240.70;213529;1322;24262;-72
2021/12/27 10:54:26;;;;;;;31.80;14.80;;;;;;;-6.17;75.26;98240.38;213831;1320;22951;-72
2021/12/27 10:59:31;;;;;;;33.40;16.00;;;;;;;-6.07;75.56;98238.66;213503;1320;22829;-71
2021/12/27 11:04:38;;;;;;;37.80;16.90;;;;;;;-5.99;75.29;98230.91;213600;1321;24364;-73
2021/12/27 11:09:42;;;;;;;38.90;16.80;;;;;;;-5.88;75.65;98225.66;213255;1322;22645;-75
2021/12/27 11:14:46;;;;;;;35.10;15.90;;;;;;;-5.76;75.44;98222.41;213479;1323;22655;-74
2021/12/27 11:19:49;;;;;;;30.20;14.20;;;;;;;-5.64;75.49;98219.91;213741;1320;22728;-74
2021/12/27 11:25:06;;;;;;;38.00;17.90;;;;;;;-5.58;74.98;98219.50;213643;1320;24264;-73
2021/12/27 11:30:23;;;;;;;28.20;14.30;;;;;;;-5.44;75.07;98212.33;213627;1321;22766;-74
2021/12/27 11:35:37;;;;;;;33.40;16.30;;;;;;;-5.39;74.70;98205.47;213450;1326;24791;-74
2021/12/27 11:40:57;;;;;;;30.50;14.50;;;;;;;-5.33;74.79;98202.67;213402;1320;25580;-74
2021/12/27 11:46:12;;;;;;;33.20;15.70;;;;;;;-5.17;74.90;98197.13;213497;1328;24284;-73
2021/12/27 11:51:42;;;;;;;29.90;15.20;;;;;;;-4.91;74.97;98191.98;213658;1321;22606;-74
2021/12/27 11:56:48;;;;;;;34.00;15.90;;;;;;;-4.82;74.24;98185.86;213408;1321;24229;-74
2021/12/27 12:02:40;;;;;;;33.50;15.40;;;;;;;-4.82;73.99;98178.73;213532;1328;25650;-74
2021/12/27 12:08:16;;;;;;;32.10;16.50;;;;;;;-4.85;73.83;98169.79;213512;1325;26798;-73
2021/12/27 12:13:29;;;;;;;29.20;14.60;;;;;;;-4.93;73.63;98166.02;213473;1328;22751;-73
2021/12/27 12:18:37;;;;;;;34.00;16.70;;;;;;;-5.13;73.30;98155.51;213512;1321;24240;-73
2021/12/27 12:23:57;;;;;;;32.90;17.50;;;;;;;-5.26;73.67;98153.86;213269;1329;22746;-73
2021/12/27 12:29:20;;;;;;;35.30;17.20;;;;;;;-5.33;73.72;98146.52;213400;1326;23662;-73
2021/12/27 12:34:31;;;;;;;33.80;14.90;;;;;;;-5.40;74.09;98142.62;213445;1321;24129;-73
2021/12/27 12:39:45;;;;;;;32.90;16.30;;;;;;;-5.39;74.01;98141.48;213510;1321;22646;-74
2021/12/27 12:45:11;;;;;;;;;;;;;;;;;;;;;
2021/12/27 12:50:21;;;;;;;36.60;17.10;;;;;;;-5.50;74.23;98142.57;213756;1320;23210;-73
2021/12/27 13:01:22;;;;;;;36.30;18.10;;;;;;;-5.53;74.60;98136.18;213527;1328;25606;-74
2021/12/27 13:06:59;;;;;;;;;;;;;;;;;;;;;
2021/12/27 13:12:37;;;;;;;;;;;;;;;;;;;;;
2021/12/27 13:18:49;;;;;;;;;;;;;;;;;;;;;
2021/12/27 13:24:12;;;;;;;39.50;17.40;;;;;;;-5.77;74.76;98127.64;213407;1325;24178;-74
2021/12/27 13:34:54;;;;;;;48.00;19.50;;;;;;;-5.86;74.94;98142.44;213492;1325;22922;-74
2021/12/27 13:40:17;;;;;;;44.90;21.20;;;;;;;-5.88;75.18;98137.17;213657;1328;22998;-73
2021/12/27 13:45:19;;;;;;;44.50;18.70;;;;;;;-5.91;75.19;98137.70;213669;1321;22613;-75
2021/12/27 13:50:29;;;;;;;47.70;20.90;;;;;;;-5.96;75.00;98143.27;213313;1328;22745;-74
2021/12/27 13:55:49;;;;;;;43.60;20.70;;;;;;;-5.99;74.92;98137.45;213394;1327;22783;-75
2021/12/27 14:01:30;;;;;;;44.60;20.00;;;;;;;-6.07;75.02;98140.38;213685;1329;24369;-75
2021/12/27 14:07:21;;;;;;;43.10;20.10;;;;;;;-6.17;75.23;98135.87;213836;1326;22689;-75
2021/12/27 14:13:58;;;;;;;;;;;;;;;-6.25;75.43;98140.88;213439;1322;23026;-75
2021/12/27 14:19:54;;;;;;;;;;;;;;;;;;;;;
2021/12/27 14:25:21;;;;;;;39.30;18.50;;;;;;;-6.42;75.54;98136.43;213372;1323;22632;-75
2021/12/27 14:31:19;;;;;;;;;;;;;;;;;;;;;
2021/12/27 14:44:11;;;;;;;49.20;21.70;;;;;;;-6.72;76.18;98139.42;212987;1328;22753;-74
2021/12/27 14:51:09;;;;;;;;;;;;;;;;;;;;;
2021/12/27 14:57:35;;;;;;;;;;;;;;;;;;;;;
2021/12/27 15:09:44;;;;;;;44.30;19.30;;;;;;;-7.02;76.77;98144.28;212910;1324;22716;-74
2021/12/27 15:15:18;;;;;;;;;;;;;;;;;;;;;
2021/12/27 15:28:54;;;;;;;;;;;;;;;;;;;;;
2021/12/27 15:35:24;;;;;;;;;;;;;;;;;;;;;
2021/12/27 15:41:58;;;;;;;45.20;19.40;;;;;;;-7.18;77.43;98147.55;213428;1323;22769;-74
2021/12/27 15:48:04;;;;;;;49.40;18.50;;;;;;;-7.02;77.73;98155.86;213099;1329;25500;-74
2021/12/27 15:55:05;;;;;;;47.50;21.00;;;;;;;-6.93;77.60;98165.73;213412;1329;25553;-75
2021/12/27 16:19:54;;;;;;;57.30;22.50;;;;;;;-6.68;77.69;98169.73;213128;1328;25568;-74
2021/12/27 16:25:09;;;;;;;51.30;21.90;;;;;;;-6.57;77.73;98169.89;213059;1327;24027;-74
2021/12/27 16:30:31;;;;;;;43.90;19.70;;;;;;;-6.54;77.61;98169.45;213255;1322;23767;-74
2021/12/27 16:35:49;;;;;;;54.40;21.80;;;;;;;-6.54;77.61;98169.70;213044;1328;24491;-74
2021/12/27 16:40:55;;;;;;;45.30;20.20;;;;;;;-6.51;77.66;98161.94;213336;1327;22791;-75
2021/12/27 16:45:58;;;;;;;49.60;21.30;;;;;;;-6.53;77.68;98157.87;213164;1323;25776;-75
2021/12/27 16:51:47;;;;;;;50.00;20.10;;;;;;;-6.56;77.40;98155.58;212963;1327;22847;-74
2021/12/27 16:57:14;;;;;;;48.00;17.90;;;;;;;-6.64;77.71;98155.30;213360;1328;22636;-74
2021/12/27 17:02:30;;;;;;;48.40;22.30;;;;;;;-6.59;77.95;98143.54;212587;1329;24263;-73
2021/12/27 17:07:32;;;;;;;43.50;19.30;;;;;;;-6.57;77.66;98139.53;213155;1329;24260;-72
2021/12/27 17:12:41;;;;;;;50.70;21.50;;;;;;;-6.58;77.82;98145.34;213397;1321;22617;-74
2021/12/27 17:17:54;;;;;;;56.40;23.70;;;;;;;-6.61;77.89;98150.81;212699;1329;22602;-75
2021/12/27 17:22:57;;;;;;;47.70;22.30;;;;;;;-6.60;77.83;98152.39;213018;1321;22831;-73
2021/12/27 17:28:02;;;;;;;54.10;21.60;;;;;;;-6.64;77.87;98149.97;213288;1324;24240;-74
2021/12/27 17:33:14;;;;;;;50.70;22.90;;;;;;;-6.64;77.90;98144.36;213179;1326;24423;-74
2021/12/27 17:38:25;;;;;;;51.60;21.90;;;;;;;-6.73;77.68;98151.40;213176;1328;22645;-75
2021/12/27 17:43:29;;;;;;;47.40;21.10;;;;;;;-6.75;77.92;98148.66;213312;1328;22886;-74
2021/12/27 17:49:08;;;;;;;48.40;20.60;;;;;;;-6.72;78.19;98138.74;213151;1327;22722;-73
2021/12/27 17:54:21;;;;;;;56.00;22.70;;;;;;;-6.65;78.19;98136.73;213448;1324;22658;-73
2021/12/27 17:59:44;;;;;;;50.20;23.10;;;;;;;-6.58;78.31;98135.92;212956;1321;22633;-74
2021/12/27 18:05:09;;;;;;;49.50;19.70;;;;;;;-6.59;78.15;98138.84;213014;1323;22790;-75
2021/12/27 18:10:25;;;;;;;59.60;25.50;;;;;;;-6.53;78.27;98139.35;213186;1326;25310;-75
2021/12/27 18:15:41;;;;;;;46.20;21.70;;;;;;;-6.51;78.16;98134.59;213029;1324;22701;-74
2021/12/27 18:20:46;;;;;;;51.00;20.80;;;;;;;-6.50;78.05;98135.20;212822;1330;22663;-75
2021/12/27 18:25:49;;;;;;;58.30;25.80;;;;;;;-6.54;78.13;98135.78;213508;1329;22795;-74
2021/12/27 18:31:02;;;;;;;50.10;21.30;;;;;;;-6.53;78.17;98132.54;213415;1328;22780;-74
2021/12/27 18:36:05;;;;;;;49.10;21.40;;;;;;;-6.54;78.14;98123.08;213540;1328;24501;-73
2021/12/27 18:41:10;;;;;;;56.40;25.80;;;;;;;-6.55;78.27;98125.89;213112;1328;22809;-73
2021/12/27 18:46:16;;;;;;;50.80;21.80;;;;;;;-6.54;78.15;98124.64;213620;1328;23017;-73
2021/12/27 18:51:21;;;;;;;48.50;21.40;;;;;;;-6.50;78.48;98124.58;213283;1327;22734;-75
2021/12/27 18:56:25;;;;;;;47.50;22.70;;;;;;;-6.50;78.02;98126.39;212853;1330;26737;-74
2021/12/27 19:01:27;;;;;;;53.20;22.40;;;;;;;-6.53;78.28;98123.75;213391;1321;25750;-76
2021/12/27 19:06:29;;;;;;;58.80;24.70;;;;;;;-6.56;78.40;98117.98;213419;1329;22806;-74
2021/12/27 19:11:36;;;;;;;57.60;23.50;;;;;;;-6.50;78.49;98112.35;213159;1328;22626;-74
2021/12/27 19:16:41;;;;;;;64.00;27.20;;;;;;;-6.45;78.52;98115.77;213655;1328;22718;-75
2021/12/27 19:21:44;;;;;;;59.00;25.80;;;;;;;-6.44;78.38;98121.67;213050;1324;22833;-73
2021/12/27 19:26:50;;;;;;;58.30;25.40;;;;;;;-6.40;78.54;98116.92;213356;1328;24467;-74
2021/12/27 19:31:57;;;;;;;52.50;21.80;;;;;;;-6.36;78.66;98114.91;213165;1325;26730;-76
2021/12/27 19:37:05;;;;;;;57.60;23.60;;;;;;;-6.35;78.33;98108.79;213455;1328;22917;-75
2021/12/27 19:42:17;;;;;;;56.70;23.30;;;;;;;-6.33;78.45;98106.52;213460;1327;23200;-75
2021/12/27 19:47:20;;;;;;;58.40;23.10;;;;;;;-6.35;78.28;98112.89;213469;1328;22710;-74
2021/12/27 19:52:24;;;;;;;64.20;26.80;;;;;;;-6.34;78.37;98110.52;213368;1328;24046;-75
2021/12/27 19:57:26;;;;;;;55.20;23.10;;;;;;;-6.30;78.43;98107.40;213375;1322;23177;-74
2021/12/27 20:02:29;;;;;;;60.00;27.70;;;;;;;-6.32;78.27;98105.84;213649;1327;25542;-75
2021/12/27 20:07:31;;;;;;;58.40;25.00;;;;;;;-6.31;78.33;98114.05;213527;1328;25747;-75
2021/12/27 20:12:39;;;;;;;62.10;24.70;;;;;;;-6.29;78.27;98117.27;213045;1329;24432;-74
2021/12/27 20:17:45;;;;;;;55.60;23.40;;;;;;;-6.31;78.39;98110.40;213600;1328;22673;-74
2021/12/27 20:22:48;;;;;;;52.10;22.20;;;;;;;-6.27;78.37;98102.04;213058;1327;25735;-75
2021/12/27 20:27:51;;;;;;;58.90;24.70;;;;;;;-6.20;78.66;98095.52;213629;1328;22772;-76
2021/12/27 20:32:53;;;;;;;60.60;24.40;;;;;;;-6.10;78.80;98092.89;213532;1329;24206;-74
2021/12/27 20:43:23;;;;;;;53.40;25.30;;;;;;;-6.10;78.46;98089.41;213325;1328;22762;-74
2021/12/27 20:48:26;;;;;;;57.70;23.70;;;;;;;-6.11;78.34;98092.81;213707;1328;22998;-74
2021/12/27 20:53:28;;;;;;;55.30;25.60;;;;;;;-6.11;78.34;98083.59;213063;1324;22669;-74
2021/12/27 20:58:39;;;;;;;56.10;23.80;;;;;;;-6.14;78.34;98078.65;213453;1327;24343;-73
2021/12/27 21:03:44;;;;;;;62.10;24.20;;;;;;;-6.21;78.17;98087.02;213581;1327;22687;-74
2021/12/27 21:09:21;;;;;;;56.60;24.80;;;;;;;-6.29;78.36;98094.10;213272;1327;22674;-73
2021/12/27 21:14:40;;;;;;;62.40;26.20;;;;;;;-6.31;78.45;98091.36;213651;1328;23927;-74
2021/12/27 21:20:17;;;;;;;64.80;27.20;;;;;;;-6.39;78.29;98087.25;213501;1328;22878;-74
2021/12/27 21:32:10;;;;;;;67.50;26.20;;;;;;;-6.60;78.50;98097.10;213267;1329;25750;-74
2021/12/27 21:38:54;;;;;;;61.10;25.60;;;;;;;-6.69;78.62;98099.67;213528;1321;22876;-74
2021/12/27 21:44:56;;;;;;;66.40;26.30;;;;;;;-6.74;78.80;98099.09;213494;1327;22675;-74
2021/12/27 21:50:59;;;;;;;76.00;30.50;;;;;;;-6.63;79.23;98098.94;213671;1329;22779;-74
2021/12/27 21:56:07;;;;;;;59.60;26.70;;;;;;;-6.49;79.15;98100.41;213562;1325;22607;-74
2021/12/27 22:01:42;;;;;;;66.50;25.20;;;;;;;-6.37;79.16;98095.88;213378;1327;22792;-74
2021/12/27 22:07:12;;;;;;;50.50;24.60;;;;;;;-6.29;79.18;98091.35;213557;1329;24292;-75
2021/12/27 22:12:22;;;;;;;;;;;;;;;-6.23;79.15;98081.27;213479;1325;24098;-73
2021/12/27 22:17:25;;;;;;;48.50;21.30;;;;;;;-6.18;79.07;98095.16;213223;1321;22675;-74
2021/12/27 22:22:33;;;;;;;64.20;27.50;;;;;;;-6.11;78.99;98091.53;213546;1329;22892;-74
2021/12/27 22:27:42;;;;;;;55.80;23.70;;;;;;;-6.09;78.97;98091.41;213559;1321;25627;-74
2021/12/27 22:33:16;;;;;;;63.30;28.00;;;;;;;-6.10;78.82;98095.30;213456;1329;22748;-74
2021/12/27 22:43:38;;;;;;;56.50;23.90;;;;;;;-6.00;79.01;98080.73;213639;1327;22582;-73
2021/12/27 22:49:31;;;;;;;57.80;25.50;;;;;;;-5.94;79.07;98078.26;213436;1327;22646;-76
2021/12/27 22:54:33;;;;;;;66.90;27.90;;;;;;;-5.84;79.06;98069.46;213309;1325;24394;-74
2021/12/27 22:59:59;;;;;;;60.00;26.20;;;;;;;-5.75;79.12;98072.37;213262;1321;24124;-75
2021/12/27 23:05:24;;;;;;;68.40;27.90;;;;;;;-5.71;78.80;98069.80;213599;1328;22715;-75
2021/12/27 23:11:29;;;;;;;64.20;28.00;;;;;;;-5.69;78.74;98067.56;212710;1323;22724;-74
2021/12/27 23:17:42;;;;;;;59.80;26.10;;;;;;;-5.65;78.93;98064.66;213041;1327;24412;-74
2021/12/27 23:23:21;;;;;;;60.50;25.10;;;;;;;-5.60;78.60;98063.86;213101;1328;22807;-75
2021/12/27 23:35:14;;;;;;;54.60;25.60;;;;;;;-5.62;78.64;98067.20;206095;1325;10380178;-74
2021/12/27 23:47:08;;;;;;;58.30;26.20;;;;;;;-5.90;78.59;98054.51;213132;1329;22664;-74
2021/12/27 23:53:09;;;;;;;55.40;23.70;;;;;;;-6.06;78.54;98055.16;213553;1328;22934;-74
2021/12/27 23:58:36;;;;;;;55.70;26.30;;;;;;;-6.14;78.92;98046.16;213419;1321;22955;-74
